Time;durP1;ratioP1;P1;durP2;ratioP2;P2;SDS_P1;SDS_P2;PMS_P1;PMS_P2;Temp;Humidity;BMP_temperature;BMP_pressure;BME280_temperature;BME280_humidity;BME280_pressure;Samples;Min_cycle;Max_cycle;Signal;HPM_P1;HPM_P2
2023/10/06 00:02:55;;;;;;;7.82;4.18;;;15.20;91.50;;;;;;5045991;28;20410;-84
2023/10/06 00:05:23;;;;;;;15.50;5.13;;;15.30;91.20;;;;;;5045734;28;20034;-82
2023/10/06 00:07:50;;;;;;;15.02;4.53;;;15.30;91.20;;;;;;5045702;28;20461;-82
2023/10/06 00:10:27;;;;;;;10.13;4.68;;;15.30;91.20;;;;;;5028579;28;20045;-82
2023/10/06 00:12:58;;;;;;;11.48;4.72;;;15.30;91.30;;;;;;5045510;28;20052;-80
2023/10/06 00:15:38;;;;;;;11.13;4.63;;;15.30;91.10;;;;;;5010706;28;20042;-80
2023/10/06 00:18:08;;;;;;;10.52;4.57;;;15.30;91.10;;;;;;5009257;28;20042;-79
2023/10/06 00:20:49;;;;;;;9.85;4.47;;;15.30;91.10;;;;;;5018601;28;20042;-83
2023/10/06 00:23:21;;;;;;;11.88;5.00;;;15.30;91.10;;;;;;5012455;28;20125;-82
2023/10/06 00:25:54;;;;;;;14.63;4.60;;;15.20;91.10;;;;;;5012580;28;20080;-84
2023/10/06 00:28:27;;;;;;;16.02;4.53;;;15.30;91.20;;;;;;5012325;28;20124;-83
2023/10/06 00:30:57;;;;;;;16.17;5.80;;;15.30;91.10;;;;;;5012191;28;20057;-85
2023/10/06 00:33:50;;;;;;;14.43;4.53;;;15.30;91.00;;;;;;4993912;28;20042;-82
2023/10/06 00:36:17;;;;;;;11.23;5.05;;;15.30;90.90;;;;;;5025234;28;20386;-84
2023/10/06 00:38:50;;;;;;;12.73;4.80;;;15.30;91.00;;;;;;5012559;28;20076;-83
2023/10/06 00:41:17;;;;;;;11.68;5.20;;;15.30;91.10;;;;;;5029114;28;20038;-84
2023/10/06 00:43:44;;;;;;;9.00;4.93;;;15.30;91.10;;;;;;5044989;28;20099;-82
2023/10/06 00:46:11;;;;;;;13.38;5.03;;;15.20;91.20;;;;;;5045725;28;20449;-82
2023/10/06 00:48:40;;;;;;;10.05;4.78;;;15.30;91.20;;;;;;5045066;28;20483;-83
2023/10/06 00:51:25;;;;;;;14.65;4.68;;;15.20;91.30;;;;;;5045032;28;20046;-80
2023/10/06 00:53:56;;;;;;;14.23;4.97;;;15.30;91.20;;;;;;5045211;28;20037;-82
2023/10/06 00:56:25;;;;;;;13.70;5.63;;;15.30;91.20;;;;;;5045094;28;20042;-82
2023/10/06 00:58:54;;;;;;;9.07;4.50;;;15.30;91.40;;;;;;5029888;28;20042;-86
2023/10/06 01:01:21;;;;;;;12.30;5.38;;;15.30;91.40;;;;;;5029976;28;20177;-84
2023/10/06 01:04:00;;;;;;;8.50;5.15;;;15.30;91.60;;;;;;5028897;28;20050;-83
2023/10/06 01:06:33;;;;;;;11.60;4.93;;;15.30;91.50;;;;;;5028422;28;20509;-80
2023/10/06 01:09:14;;;;;;;13.02;5.07;;;15.30;91.50;;;;;;5044839;28;20056;-82
2023/10/06 01:11:51;;;;;;;11.45;4.95;;;15.30;91.10;;;;;;5043234;28;20046;-82
2023/10/06 01:14:22;;;;;;;13.23;5.18;;;15.30;91.10;;;;;;5045005;28;20057;-82
2023/10/06 01:16:49;;;;;;;10.38;5.05;;;15.30;91.10;;;;;;5028641;28;20054;-82
2023/10/06 01:19:27;;;;;;;10.82;5.75;;;15.30;91.00;;;;;;5028433;28;20046;-82
2023/10/06 01:21:54;;;;;;;13.02;5.25;;;15.30;90.90;;;;;;5045186;28;20038;-83
2023/10/06 01:24:24;;;;;;;9.18;5.35;;;15.30;90.80;;;;;;5028605;28;20046;-86
2023/10/06 01:27:00;;;;;;;14.75;5.90;;;15.40;90.50;;;;;;5011011;28;20045;-81
2023/10/06 01:29:30;;;;;;;14.73;5.90;;;15.40;90.70;;;;;;5008258;28;20491;-81
2023/10/06 01:31:57;;;;;;;14.02;5.47;;;15.30;90.50;;;;;;5025423;28;20043;-80
2023/10/06 01:34:24;;;;;;;12.18;5.05;;;15.30;90.50;;;;;;4992209;28;20080;-81
2023/10/06 01:36:53;;;;;;;13.60;4.93;;;15.30;90.50;;;;;;5008571;28;20117;-84
2023/10/06 01:39:30;;;;;;;13.52;5.03;;;15.40;90.40;;;;;;4992042;28;20049;-79
2023/10/06 01:41:56;;;;;;;11.27;5.43;;;15.30;90.70;;;;;;4992301;28;20047;-83
2023/10/06 01:44:22;;;;;;;12.25;5.47;;;15.30;90.70;;;;;;4995127;28;20037;-82
2023/10/06 01:46:54;;;;;;;24.05;7.13;;;15.30;90.90;;;;;;5028083;28;20079;-81
2023/10/06 01:49:23;;;;;;;11.25;5.35;;;15.20;91.00;;;;;;5030692;28;20053;-80
2023/10/06 01:51:50;;;;;;;11.05;5.18;;;15.20;91.00;;;;;;5015552;28;20041;-79
2023/10/06 01:54:18;;;;;;;12.65;5.78;;;15.20;91.00;;;;;;5048211;28;20121;-81
2023/10/06 01:56:44;;;;;;;9.18;5.13;;;15.20;91.20;;;;;;5032285;28;20433;-80
2023/10/06 01:59:16;;;;;;;15.10;4.65;;;15.20;91.10;;;;;;5047419;28;20045;-81
2023/10/06 02:01:43;;;;;;;16.10;6.03;;;15.20;91.00;;;;;;4996175;28;20074;-81
2023/10/06 02:04:10;;;;;;;13.68;5.10;;;15.20;91.20;;;;;;4964780;28;20379;-82
2023/10/06 02:06:48;;;;;;;19.25;5.60;;;15.10;91.20;;;;;;5029743;28;20069;-81
2023/10/06 02:09:15;;;;;;;17.48;5.10;;;15.20;91.10;;;;;;4997734;28;20073;-80
2023/10/06 02:11:45;;;;;;;17.58;5.20;;;15.10;91.20;;;;;;4995725;28;20073;-84
2023/10/06 02:14:17;;;;;;;11.13;5.00;;;15.20;91.00;;;;;;5028660;28;20382;-83
2023/10/06 02:16:46;;;;;;;9.98;4.82;;;15.20;90.80;;;;;;5014460;28;20042;-81
2023/10/06 02:19:16;;;;;;;10.95;4.85;;;15.10;90.90;;;;;;4996299;28;20097;-83
2023/10/06 02:21:46;;;;;;;14.15;4.47;;;15.10;91.00;;;;;;4995939;28;20108;-86
2023/10/06 02:24:12;;;;;;;11.82;4.70;;;15.10;90.90;;;;;;5012260;28;20050;-81
2023/10/06 02:26:39;;;;;;;13.70;5.47;;;15.10;90.70;;;;;;4995980;28;20049;-82
2023/10/06 02:29:21;;;;;;;10.43;4.38;;;15.00;90.80;;;;;;4996144;28;20039;-80
2023/10/06 02:31:47;;;;;;;11.20;4.53;;;15.10;90.60;;;;;;5049816;28;20433;-83
2023/10/06 02:34:18;;;;;;;14.88;5.20;;;15.10;90.70;;;;;;5031641;28;20042;-82
2023/10/06 02:36:44;;;;;;;14.90;5.38;;;15.10;90.50;;;;;;5048052;28;20545;-83
2023/10/06 02:39:15;;;;;;;12.68;4.57;;;15.00;90.80;;;;;;5049838;28;20134;-80
2023/10/06 02:41:41;;;;;;;12.90;4.78;;;14.90;90.80;;;;;;5048194;28;20045;-83
2023/10/06 02:44:14;;;;;;;10.75;3.97;;;15.00;90.70;;;;;;5048334;28;20048;-84
2023/10/06 02:46:41;;;;;;;19.17;5.72;;;14.90;90.90;;;;;;5022694;28;20043;-82
2023/10/06 02:49:08;;;;;;;10.52;4.13;;;14.90;91.00;;;;;;5048049;28;20387;-82
2023/10/06 02:51:41;;;;;;;14.00;4.90;;;14.90;91.00;;;;;;5047734;28;20397;-80
2023/10/06 02:54:20;;;;;;;14.67;4.93;;;14.90;91.00;;;;;;5031442;28;20034;-80
2023/10/06 02:56:47;;;;;;;9.93;5.30;;;14.80;91.00;;;;;;5045702;28;20042;-80
2023/10/06 02:59:23;;;;;;;16.52;5.30;;;14.90;91.00;;;;;;5030285;28;20482;-80
2023/10/06 03:01:54;;;;;;;12.48;4.30;;;14.90;90.90;;;;;;5045495;28;20060;-83
2023/10/06 03:04:25;;;;;;;13.18;5.60;;;14.90;91.30;;;;;;5030728;28;20513;-82
2023/10/06 03:06:56;;;;;;;15.20;5.40;;;14.80;91.30;;;;;;5047056;28;20077;-81
2023/10/06 03:09:37;;;;;;;16.42;5.28;;;14.80;91.50;;;;;;5046878;28;20490;-83
2023/10/06 03:12:20;;;;;;;17.25;5.18;;;14.80;91.80;;;;;;5047483;28;20437;-84
2023/10/06 03:14:46;;;;;;;12.13;5.35;;;14.90;91.50;;;;;;5047481;28;20533;-84
2023/10/06 03:17:13;;;;;;;12.68;5.53;;;14.80;92.10;;;;;;5047003;28;20046;-81
2023/10/06 03:19:44;;;;;;;14.40;5.63;;;14.70;92.40;;;;;;5031498;28;20045;-80
2023/10/06 03:22:12;;;;;;;15.27;5.53;;;14.80;92.00;;;;;;5048314;28;20053;-85
2023/10/06 03:25:00;;;;;;;13.40;5.88;;;14.80;92.30;;;;;;5030545;28;20054;-81
2023/10/06 03:27:26;;;;;;;15.45;6.78;;;14.80;92.20;;;;;;5044517;28;20049;-81
2023/10/06 03:29:56;;;;;;;14.88;7.00;;;14.80;92.70;;;;;;5062732;28;20050;-83
2023/10/06 03:32:27;;;;;;;19.88;7.65;;;14.80;92.90;;;;;;5029576;28;20100;-83
2023/10/06 03:34:57;;;;;;;17.58;7.82;;;14.90;93.00;;;;;;5028927;28;20092;-79
2023/10/06 03:37:39;;;;;;;19.85;8.20;;;14.80;92.80;;;;;;5044672;28;20121;-84
2023/10/06 03:40:13;;;;;;;17.08;7.05;;;14.80;93.80;;;;;;5013475;28;20053;-82
2023/10/06 03:42:39;;;;;;;18.10;8.40;;;14.80;93.40;;;;;;5028724;28;20076;-85
2023/10/06 03:45:18;;;;;;;22.45;8.32;;;14.80;93.90;;;;;;5063184;28;20046;-83
2023/10/06 03:47:46;;;;;;;15.10;8.50;;;14.80;93.70;;;;;;5020528;28;20567;-82
2023/10/06 03:50:13;;;;;;;14.98;7.55;;;14.80;93.70;;;;;;5028886;28;20513;-82
2023/10/06 03:52:39;;;;;;;15.32;8.30;;;14.80;93.70;;;;;;5046010;28;20038;-84
2023/10/06 03:55:06;;;;;;;17.55;9.13;;;14.90;93.60;;;;;;5045929;28;20512;-82
2023/10/06 03:57:32;;;;;;;15.60;9.60;;;14.90;93.70;;;;;;5030355;28;20049;-83
2023/10/06 03:59:58;;;;;;;23.50;9.98;;;14.80;93.90;;;;;;5013338;28;20046;-79
2023/10/06 04:02:38;;;;;;;22.23;9.57;;;14.90;94.10;;;;;;5045448;28;20375;-82
2023/10/06 04:05:06;;;;;;;19.35;9.70;;;14.90;94.00;;;;;;5013118;28;20549;-80
2023/10/06 04:07:32;;;;;;;18.60;10.35;;;14.80;94.20;;;;;;5012887;28;20057;-85
2023/10/06 04:09:58;;;;;;;18.33;10.07;;;14.80;94.30;;;;;;5012755;28;20049;-82
2023/10/06 04:12:25;;;;;;;21.52;9.98;;;14.90;94.40;;;;;;5012293;28;20433;-80
2023/10/06 04:14:53;;;;;;;19.25;10.20;;;14.90;94.20;;;;;;5012465;28;20042;-85
2023/10/06 04:17:21;;;;;;;20.38;11.30;;;14.90;94.50;;;;;;5012325;28;20045;-83
2023/10/06 04:19:48;;;;;;;18.33;9.63;;;14.80;95.00;;;;;;5011721;28;20064;-81
2023/10/06 04:22:14;;;;;;;19.88;9.98;;;14.90;94.50;;;;;;5028928;28;20042;-81
2023/10/06 04:24:40;;;;;;;21.92;9.25;;;14.80;95.10;;;;;;5012344;28;20114;-83
2023/10/06 04:27:07;;;;;;;20.27;9.32;;;14.80;95.00;;;;;;4995984;28;20088;-85
2023/10/06 04:29:36;;;;;;;18.23;9.00;;;14.80;95.00;;;;;;5045065;28;20061;-84
2023/10/06 04:32:02;;;;;;;19.75;9.00;;;14.80;94.80;;;;;;5028305;28;20045;-83
2023/10/06 04:34:33;;;;;;;20.83;8.77;;;14.80;94.90;;;;;;5012571;28;20113;-82
2023/10/06 04:37:00;;;;;;;21.88;8.98;;;14.90;94.90;;;;;;5008505;28;20053;-84
2023/10/06 04:39:26;;;;;;;17.98;8.02;;;14.80;95.10;;;;;;4992345;28;20043;-80
2023/10/06 04:41:55;;;;;;;16.25;9.35;;;14.80;95.10;;;;;;4992181;28;20048;-81
2023/10/06 04:44:21;;;;;;;18.25;8.48;;;14.80;95.20;;;;;;4992412;28;20042;-81
2023/10/06 04:46:46;;;;;;;15.73;8.68;;;14.80;95.00;;;;;;5009688;28;20410;-83
2023/10/06 04:49:12;;;;;;;19.75;9.23;;;14.80;95.00;;;;;;5023657;28;20042;-80
2023/10/06 04:51:38;;;;;;;15.40;7.35;;;14.80;95.70;;;;;;5011597;28;20045;-83
2023/10/06 04:54:07;;;;;;;20.70;8.85;;;14.80;95.40;;;;;;4995374;28;20091;-89
2023/10/06 04:56:33;;;;;;;19.50;8.20;;;14.90;95.10;;;;;;5011503;28;20486;-78
2023/10/06 04:58:59;;;;;;;13.77;7.50;;;14.80;95.20;;;;;;5011278;28;20038;-83
2023/10/06 05:01:30;;;;;;;24.65;7.72;;;14.80;95.80;;;;;;4995283;28;20042;-83
2023/10/06 05:03:56;;;;;;;18.10;8.25;;;14.80;95.50;;;;;;4995950;28;20064;-81
2023/10/06 05:06:21;;;;;;;18.58;7.05;;;14.80;95.50;;;;;;5028354;28;20129;-83
2023/10/06 05:08:47;;;;;;;17.77;7.35;;;14.80;95.40;;;;;;5028128;28;20046;-81
2023/10/06 05:11:18;;;;;;;20.08;7.10;;;14.90;95.00;;;;;;4995545;28;20106;-86
2023/10/06 05:13:44;;;;;;;15.55;7.22;;;14.90;95.10;;;;;;5012581;28;20132;-85
2023/10/06 05:16:12;;;;;;;18.08;7.47;;;14.90;95.10;;;;;;5029961;28;20073;-82
2023/10/06 05:18:38;;;;;;;14.48;6.43;;;14.90;94.90;;;;;;5029025;28;20077;-82
2023/10/06 05:21:08;;;;;;;17.58;7.40;;;15.00;94.70;;;;;;5012165;28;20073;-81
2023/10/06 05:23:36;;;;;;;14.60;6.53;;;14.90;94.50;;;;;;4999226;28;20512;-82
2023/10/06 05:26:08;;;;;;;15.07;7.03;;;15.00;94.70;;;;;;5015827;28;20067;-84
2023/10/06 05:28:37;;;;;;;20.33;7.07;;;14.90;94.60;;;;;;5015693;28;20054;-82
2023/10/06 05:31:04;;;;;;;21.73;6.97;;;14.90;94.70;;;;;;5015278;28;20060;-82
2023/10/06 05:33:30;;;;;;;18.55;6.97;;;14.90;94.70;;;;;;4999620;28;20049;-84
2023/10/06 05:35:56;;;;;;;15.88;6.40;;;15.00;94.60;;;;;;5000660;28;20042;-85
2023/10/06 05:38:22;;;;;;;13.82;6.53;;;15.00;94.60;;;;;;5016179;28;20398;-85
2023/10/06 05:40:48;;;;;;;15.73;6.53;;;14.90;94.60;;;;;;5015559;28;20038;-86
2023/10/06 05:43:16;;;;;;;15.80;7.40;;;15.00;94.60;;;;;;4999207;28;20038;-83
2023/10/06 05:45:51;;;;;;;16.02;6.47;;;15.00;94.50;;;;;;5015220;28;20045;-85
2023/10/06 05:48:21;;;;;;;16.25;7.40;;;15.00;94.60;;;;;;4999222;28;20083;-81
2023/10/06 05:50:48;;;;;;;13.27;6.43;;;15.00;94.60;;;;;;4999672;28;20048;-82
2023/10/06 05:53:23;;;;;;;19.85;7.32;;;15.00;94.70;;;;;;5027179;28;20101;-81
2023/10/06 05:55:52;;;;;;;25.63;7.55;;;15.00;94.60;;;;;;5023177;28;20049;-80
2023/10/06 05:58:23;;;;;;;13.88;6.93;;;15.00;94.50;;;;;;5039260;28;20114;-85
2023/10/06 06:00:56;;;;;;;15.98;7.22;;;15.00;94.30;;;;;;5038219;28;20101;-83
2023/10/06 06:03:25;;;;;;;19.77;7.57;;;15.10;94.30;;;;;;5024310;28;20109;-81
2023/10/06 06:05:57;;;;;;;19.45;7.78;;;15.10;94.30;;;;;;5038241;28;20026;-84
2023/10/06 06:08:23;;;;;;;20.98;8.27;;;15.10;94.30;;;;;;5015398;28;20046;-83
2023/10/06 06:10:49;;;;;;;23.25;6.93;;;15.10;94.60;;;;;;5029427;28;20041;-81
2023/10/06 06:13:18;;;;;;;20.63;7.45;;;15.10;94.50;;;;;;5034442;28;20053;-82
2023/10/06 06:15:44;;;;;;;19.58;6.95;;;15.10;94.50;;;;;;5020615;28;20034;-81
2023/10/06 06:18:10;;;;;;;16.80;7.18;;;15.10;94.60;;;;;;5016417;28;20034;-80
2023/10/06 06:20:41;;;;;;;22.90;6.80;;;15.10;94.60;;;;;;5021218;28;20061;-84
2023/10/06 06:23:09;;;;;;;16.90;7.18;;;15.10;94.80;;;;;;5015378;28;20052;-86
2023/10/06 06:25:39;;;;;;;19.48;7.10;;;15.10;94.80;;;;;;5000144;28;20034;-82
2023/10/06 06:28:05;;;;;;;16.00;6.80;;;15.00;94.90;;;;;;5001165;28;20034;-77
2023/10/06 06:30:34;;;;;;;21.00;6.35;;;15.00;95.00;;;;;;5004891;28;20543;-79
2023/10/06 06:33:04;;;;;;;18.50;6.20;;;15.10;95.00;;;;;;5017005;28;20081;-80
2023/10/06 06:35:30;;;;;;;22.55;7.32;;;15.00;95.00;;;;;;4998351;28;20033;-82
2023/10/06 06:38:01;;;;;;;17.98;6.68;;;15.00;95.10;;;;;;5014465;28;20049;-80
2023/10/06 06:40:37;;;;;;;22.42;6.45;;;15.00;95.20;;;;;;5014417;28;20045;-83
2023/10/06 06:43:09;;;;;;;21.67;6.25;;;15.00;95.10;;;;;;5014493;28;20465;-82
2023/10/06 06:45:39;;;;;;;21.67;6.95;;;15.10;95.00;;;;;;4997396;28;20046;-82
2023/10/06 06:48:12;;;;;;;15.57;7.28;;;15.10;95.10;;;;;;4997805;28;20052;-80
2023/10/06 06:50:44;;;;;;;19.90;6.82;;;15.10;95.00;;;;;;5000230;28;20041;-82
2023/10/06 06:53:11;;;;;;;15.93;6.78;;;15.10;95.00;;;;;;5014930;28;20045;-79
2023/10/06 06:55:37;;;;;;;15.18;6.88;;;15.10;95.20;;;;;;5014631;28;20080;-78
2023/10/06 06:58:10;;;;;;;24.10;6.43;;;15.10;95.20;;;;;;5013988;28;20069;-85
2023/10/06 07:00:39;;;;;;;22.23;7.43;;;15.20;95.10;;;;;;5013846;28;20052;-81
2023/10/06 07:03:05;;;;;;;16.13;6.43;;;15.10;95.40;;;;;;4997488;28;20048;-79
2023/10/06 07:05:34;;;;;;;20.55;7.03;;;15.10;95.50;;;;;;5014588;28;20405;-80
2023/10/06 07:08:03;;;;;;;22.67;7.18;;;15.20;95.40;;;;;;5014111;28;20046;-78
2023/10/06 07:10:29;;;;;;;27.77;7.85;;;15.10;95.40;;;;;;4997381;28;20042;-85
2023/10/06 07:12:58;;;;;;;21.73;7.55;;;15.10;95.40;;;;;;4997069;28;20034;-80
2023/10/06 07:15:27;;;;;;;24.20;7.63;;;15.10;95.80;;;;;;4997448;28;20069;-86
2023/10/06 07:17:55;;;;;;;16.83;7.20;;;15.10;95.80;;;;;;4997364;28;20049;-80
2023/10/06 07:20:24;;;;;;;22.10;7.97;;;15.10;95.70;;;;;;5013498;28;20046;-82
2023/10/06 07:22:53;;;;;;;18.02;7.07;;;15.10;95.90;;;;;;4997323;28;20068;-81
2023/10/06 07:25:24;;;;;;;18.17;6.72;;;15.20;95.70;;;;;;5013371;28;20049;-80
2023/10/06 07:27:52;;;;;;;16.77;6.20;;;15.20;95.90;;;;;;4996951;28;20048;-81
2023/10/06 07:30:22;;;;;;;15.63;6.75;;;15.20;95.80;;;;;;4996673;28;20129;-83
2023/10/06 07:32:48;;;;;;;20.80;6.80;;;15.20;95.90;;;;;;5013262;28;20518;-80
2023/10/06 07:35:17;;;;;;;19.60;6.88;;;15.20;96.10;;;;;;4997085;28;20049;-83
2023/10/06 07:37:44;;;;;;;22.02;7.50;;;15.30;95.90;;;;;;5013119;28;20044;-81
2023/10/06 07:40:15;;;;;;;22.25;7.03;;;15.40;95.70;;;;;;4996911;28;20046;-80
2023/10/06 07:42:45;;;;;;;18.90;6.60;;;15.40;95.80;;;;;;5013003;28;20046;-82
2023/10/06 07:45:12;;;;;;;23.40;6.78;;;15.50;95.60;;;;;;5011936;28;20041;-78
2023/10/06 07:47:39;;;;;;;17.30;6.55;;;15.50;95.60;;;;;;4997148;28;20042;-79
2023/10/06 07:50:06;;;;;;;21.95;6.80;;;15.50;95.70;;;;;;5013595;28;20486;-83
2023/10/06 07:52:33;;;;;;;16.60;6.13;;;15.50;95.70;;;;;;4996865;28;20089;-83
2023/10/06 07:55:05;;;;;;;19.13;6.75;;;15.60;95.50;;;;;;5012686;28;20564;-81
2023/10/06 07:57:33;;;;;;;19.48;7.18;;;15.60;95.50;;;;;;4996579;28;20482;-84
2023/10/06 08:00:06;;;;;;;17.10;6.47;;;15.60;95.50;;;;;;4996629;28;20046;-81
2023/10/06 08:02:39;;;;;;;22.50;7.47;;;15.70;95.40;;;;;;5012733;28;20099;-82
2023/10/06 08:05:07;;;;;;;21.02;7.30;;;15.80;95.30;;;;;;5012910;28;20042;-80
2023/10/06 08:07:33;;;;;;;21.63;7.57;;;15.90;95.20;;;;;;4996091;28;20046;-80
2023/10/06 08:10:00;;;;;;;20.00;6.03;;;16.00;95.00;;;;;;5012504;28;20041;-82
2023/10/06 08:12:29;;;;;;;20.52;5.68;;;16.00;94.60;;;;;;5012441;28;20045;-82
2023/10/06 08:14:55;;;;;;;15.07;4.85;;;16.20;94.40;;;;;;4996378;28;20038;-80
2023/10/06 08:17:21;;;;;;;16.55;6.13;;;16.20;94.20;;;;;;5012468;28;20553;-82
2023/10/06 08:19:47;;;;;;;15.23;5.20;;;16.20;94.10;;;;;;4997121;28;20038;-83
2023/10/06 08:22:14;;;;;;;17.15;5.82;;;16.30;94.00;;;;;;5015254;28;20143;-81
2023/10/06 08:24:39;;;;;;;16.10;6.35;;;16.30;93.60;;;;;;5014178;28;20101;-82
2023/10/06 08:27:07;;;;;;;15.02;5.70;;;16.40;93.40;;;;;;5012222;28;20498;-81
2023/10/06 08:29:33;;;;;;;13.98;5.47;;;16.30;93.40;;;;;;5012062;28;20050;-80
2023/10/06 08:31:59;;;;;;;18.23;6.70;;;16.40;93.50;;;;;;5012337;28;20050;-80
2023/10/06 08:34:27;;;;;;;14.38;5.45;;;16.40;93.30;;;;;;5012190;28;20080;-82
2023/10/06 08:36:53;;;;;;;20.48;7.28;;;16.50;93.10;;;;;;5012819;28;20423;-80
2023/10/06 08:39:20;;;;;;;16.92;6.07;;;16.50;93.10;;;;;;4995995;28;20104;-80
2023/10/06 08:41:52;;;;;;;19.50;6.13;;;16.50;93.30;;;;;;5012023;28;20042;-83
2023/10/06 08:44:20;;;;;;;19.90;6.30;;;16.50;93.10;;;;;;4995982;28;20395;-83
2023/10/06 08:46:47;;;;;;;15.45;6.15;;;16.50;93.20;;;;;;5011955;28;20046;-80
2023/10/06 08:49:19;;;;;;;23.73;5.72;;;16.50;93.20;;;;;;4995532;28;20084;-84
2023/10/06 08:51:50;;;;;;;13.32;5.35;;;16.60;93.10;;;;;;4995679;28;20133;-81
2023/10/06 08:54:17;;;;;;;22.33;5.85;;;16.70;92.90;;;;;;4995243;28;20471;-81
2023/10/06 08:56:43;;;;;;;20.73;6.30;;;16.70;92.90;;;;;;5012818;28;20080;-80
2023/10/06 08:59:11;;;;;;;13.15;5.15;;;16.80;92.90;;;;;;5015968;28;20073;-80
2023/10/06 09:01:37;;;;;;;17.85;5.35;;;16.90;92.80;;;;;;5016333;28;20042;-83
2023/10/06 09:04:03;;;;;;;21.58;7.07;;;17.00;92.50;;;;;;5016288;28;20112;-83
2023/10/06 09:06:30;;;;;;;17.27;5.75;;;17.20;92.30;;;;;;5015910;28;20112;-81
2023/10/06 09:08:55;;;;;;;12.95;4.72;;;17.30;92.20;;;;;;4999276;28;20478;-81
2023/10/06 09:11:38;;;;;;;25.83;5.88;;;17.20;91.90;;;;;;5016033;28;20056;-84
2023/10/06 09:14:13;;;;;;;17.98;5.40;;;17.20;91.30;;;;;;5004377;28;20046;-81
2023/10/06 09:16:49;;;;;;;13.55;5.93;;;17.20;91.60;;;;;;5015539;28;20064;-81
2023/10/06 09:19:14;;;;;;;19.27;6.60;;;17.30;91.50;;;;;;4991215;28;20132;-84
2023/10/06 09:22:00;;;;;;;15.13;4.97;;;17.30;91.50;;;;;;5007184;28;20502;-83
2023/10/06 09:24:27;;;;;;;17.63;5.85;;;17.40;91.30;;;;;;5006476;28;20053;-83
2023/10/06 09:26:55;;;;;;;12.88;4.85;;;17.30;91.30;;;;;;5007566;28;20132;-85
2023/10/06 09:29:35;;;;;;;17.80;6.50;;;17.30;91.50;;;;;;5007023;28;20057;-81
2023/10/06 09:32:19;;;;;;;12.07;5.07;;;17.40;91.60;;;;;;4996110;28;20084;-79
2023/10/06 09:34:45;;;;;;;19.42;4.40;;;17.50;91.30;;;;;;5015182;28;20129;-82
2023/10/06 09:37:20;;;;;;;23.95;5.80;;;17.50;91.00;;;;;;5015426;28;20081;-82
2023/10/06 09:39:57;;;;;;;14.57;4.63;;;17.50;90.90;;;;;;4999460;28;20049;-81
2023/10/06 09:42:30;;;;;;;23.73;4.78;;;17.70;90.60;;;;;;5016191;28;20049;-83
2023/10/06 09:45:15;;;;;;;14.75;4.07;;;17.70;90.30;;;;;;5019238;28;20046;-81
2023/10/06 09:47:56;;;;;;;18.33;4.60;;;17.80;90.20;;;;;;5026299;28;20060;-77
2023/10/06 09:50:23;;;;;;;18.40;4.80;;;17.80;89.90;;;;;;5005849;28;20042;-82
2023/10/06 09:52:50;;;;;;;19.15;4.90;;;17.80;89.90;;;;;;4998696;28;20513;-80
2023/10/06 09:55:19;;;;;;;19.42;4.35;;;17.90;89.90;;;;;;5015301;28;20104;-86
2023/10/06 09:57:50;;;;;;;14.68;5.00;;;18.00;89.80;;;;;;5031589;28;20042;-85
2023/10/06 10:00:19;;;;;;;18.65;4.95;;;18.00;89.70;;;;;;5031456;28;20050;-81
2023/10/06 10:02:47;;;;;;;15.45;4.38;;;18.10;89.60;;;;;;5015027;28;20049;-83
2023/10/06 10:05:22;;;;;;;15.98;4.60;;;18.20;89.00;;;;;;4998620;28;20045;-82
2023/10/06 10:07:48;;;;;;;16.10;4.03;;;18.40;88.50;;;;;;4997985;28;20137;-85
2023/10/06 10:10:18;;;;;;;20.70;4.57;;;18.50;87.70;;;;;;4997902;28;20037;-84
2023/10/06 10:13:36;;;;;;;15.15;4.15;;;18.60;87.00;;;;;;5014718;28;20584;-84
2023/10/06 10:16:31;;;;;;;15.93;4.22;;;18.70;86.40;;;;;;5030177;28;20041;-81
2023/10/06 10:19:07;;;;;;;13.70;4.00;;;18.80;85.50;;;;;;5014542;28;20060;-84
2023/10/06 10:21:34;;;;;;;13.35;4.25;;;18.80;85.30;;;;;;5014713;28;20375;-82
2023/10/06 10:24:07;;;;;;;17.75;4.10;;;18.90;85.30;;;;;;4998291;28;20042;-84
2023/10/06 10:26:35;;;;;;;19.25;4.97;;;19.00;85.50;;;;;;5014563;28;20045;-86
2023/10/06 10:29:12;;;;;;;12.85;4.70;;;19.00;85.10;;;;;;5014280;28;20107;-84
2023/10/06 10:31:54;;;;;;;16.55;4.97;;;19.00;85.10;;;;;;4997850;28;20046;-79
2023/10/06 10:34:21;;;;;;;13.43;3.03;;;19.10;85.00;;;;;;4998310;28;20374;-82
2023/10/06 10:37:07;;;;;;;15.10;4.25;;;19.20;84.70;;;;;;5014414;28;20048;-84
2023/10/06 10:39:46;;;;;;;19.38;5.55;;;19.30;84.20;;;;;;5014527;28;20042;-83
2023/10/06 10:42:12;;;;;;;11.20;3.40;;;19.40;84.20;;;;;;5030963;28;20042;-81
2023/10/06 10:44:40;;;;;;;14.82;4.20;;;19.40;83.20;;;;;;5014253;28;20126;-87
2023/10/06 10:47:06;;;;;;;13.07;4.45;;;19.40;83.20;;;;;;5014168;28;20038;-80
2023/10/06 10:49:33;;;;;;;12.68;4.40;;;19.40;83.20;;;;;;4997481;28;20100;-82
2023/10/06 10:52:17;;;;;;;13.68;4.00;;;19.30;83.40;;;;;;4997654;28;20088;-82
2023/10/06 10:54:43;;;;;;;13.93;4.25;;;19.20;83.10;;;;;;5013857;28;20074;-84
2023/10/06 10:57:19;;;;;;;14.77;3.80;;;19.30;82.70;;;;;;5013909;28;20046;-84
2023/10/06 11:00:00;;;;;;;15.48;4.47;;;19.20;82.90;;;;;;5014110;28;20124;-84
2023/10/06 11:02:42;;;;;;;9.35;3.97;;;19.40;83.10;;;;;;5014149;28;20379;-82
2023/10/06 11:05:09;;;;;;;14.15;5.07;;;19.50;82.40;;;;;;5013758;28;20041;-85
2023/10/06 11:07:35;;;;;;;12.27;4.18;;;19.40;81.40;;;;;;5013611;28;20077;-83
2023/10/06 11:10:05;;;;;;;12.98;4.20;;;19.50;81.50;;;;;;5013919;28;20045;-87
2023/10/06 11:12:31;;;;;;;15.50;4.13;;;19.60;81.70;;;;;;5013593;28;20044;-85
2023/10/06 11:15:20;;;;;;;12.77;4.50;;;19.60;82.20;;;;;;5014022;28;20034;-86
2023/10/06 11:17:46;;;;;;;14.52;3.85;;;19.70;81.90;;;;;;5013432;28;20104;-82
2023/10/06 11:20:33;;;;;;;15.20;3.95;;;19.80;82.00;;;;;;4997281;28;20042;-82
2023/10/06 11:23:00;;;;;;;13.32;3.50;;;19.90;81.30;;;;;;4997099;28;20128;-84
2023/10/06 11:25:27;;;;;;;13.13;4.07;;;20.00;81.10;;;;;;4997169;28;20046;-83
2023/10/06 11:28:04;;;;;;;17.13;4.50;;;20.00;80.40;;;;;;4997209;28;20049;-84
2023/10/06 11:30:34;;;;;;;19.17;4.30;;;20.10;80.80;;;;;;5013360;28;20089;-84
2023/10/06 11:33:06;;;;;;;11.80;3.55;;;20.10;81.00;;;;;;4997310;28;20042;-83
2023/10/06 11:35:35;;;;;;;15.15;4.38;;;20.10;81.00;;;;;;4987917;28;20554;-84
2023/10/06 11:38:11;;;;;;;15.48;4.90;;;20.00;81.10;;;;;;5020034;28;20092;-85
2023/10/06 11:40:38;;;;;;;15.40;3.63;;;20.00;81.00;;;;;;4989271;28;20046;-84
2023/10/06 11:43:21;;;;;;;13.48;4.13;;;20.10;80.50;;;;;;5012067;28;20104;-85
2023/10/06 11:45:50;;;;;;;14.30;4.87;;;20.10;81.10;;;;;;5007291;28;20054;-85
2023/10/06 11:48:34;;;;;;;13.48;3.95;;;20.10;81.10;;;;;;5004893;28;20041;-81
2023/10/06 11:51:12;;;;;;;;;;;20.40;80.10;;;;;;5000294;28;20152;-84
2023/10/06 11:53:40;;;;;;;11.63;4.07;;;20.40;79.20;;;;;;4988255;28;20019;-84
2023/10/06 11:56:15;;;;;;;12.93;3.22;;;20.40;79.80;;;;;;5003652;28;20054;-83
2023/10/06 11:58:42;;;;;;;15.20;4.20;;;20.40;79.20;;;;;;4988484;28;20382;-82
2023/10/06 12:01:36;;;;;;;14.70;4.38;;;20.30;79.20;;;;;;4988306;28;20053;-83
2023/10/06 12:04:04;;;;;;;12.05;4.13;;;20.40;80.10;;;;;;4988256;28;20105;-80
2023/10/06 12:06:42;;;;;;;14.82;4.00;;;20.60;80.10;;;;;;5002689;28;20529;-81
2023/10/06 12:09:15;;;;;;;18.02;4.50;;;20.60;79.90;;;;;;4997154;28;20108;-83
2023/10/06 12:11:41;;;;;;;13.80;3.95;;;20.60;79.70;;;;;;4988107;28;20374;-82
2023/10/06 12:14:06;;;;;;;21.15;4.30;;;20.40;80.40;;;;;;5004457;28;20044;-82
2023/10/06 12:16:32;;;;;;;12.95;4.00;;;20.40;80.60;;;;;;5002381;28;20391;-83
2023/10/06 12:18:59;;;;;;;10.98;4.00;;;20.40;81.30;;;;;;5003647;28;20407;-81
2023/10/06 12:21:25;;;;;;;11.68;3.50;;;20.20;80.40;;;;;;4987538;28;20049;-81
2023/10/06 12:23:52;;;;;;;9.00;3.53;;;20.00;80.30;;;;;;5003078;28;20541;-81
2023/10/06 12:26:18;;;;;;;14.27;3.97;;;20.00;80.70;;;;;;4985760;28;20053;-83
2023/10/06 12:28:44;;;;;;;16.25;4.43;;;19.90;81.50;;;;;;5001859;28;20041;-81
2023/10/06 12:31:13;;;;;;;12.02;4.15;;;19.70;81.90;;;;;;4986610;28;20352;-81
2023/10/06 12:33:38;;;;;;;16.88;4.32;;;19.60;82.10;;;;;;5003635;28;20128;-80
2023/10/06 12:36:08;;;;;;;14.90;3.70;;;19.60;82.40;;;;;;4985621;28;20073;-82
2023/10/06 12:38:35;;;;;;;10.77;3.95;;;19.70;82.50;;;;;;5001036;28;20041;-82
2023/10/06 12:41:01;;;;;;;16.38;3.75;;;19.70;82.50;;;;;;4988227;28;20048;-82
2023/10/06 12:43:26;;;;;;;15.73;4.43;;;19.70;82.50;;;;;;4988034;28;20050;-81
2023/10/06 12:45:55;;;;;;;11.55;4.13;;;19.70;82.60;;;;;;4998825;28;20077;-80
2023/10/06 12:48:21;;;;;;;15.48;4.50;;;19.60;82.70;;;;;;5003732;28;20474;-82
2023/10/06 12:50:47;;;;;;;14.82;4.43;;;19.60;82.30;;;;;;4986804;28;20087;-81
2023/10/06 12:53:13;;;;;;;13.45;4.00;;;19.50;82.60;;;;;;5003571;28;20108;-82
2023/10/06 12:55:42;;;;;;;13.73;4.10;;;19.60;82.20;;;;;;4985405;28;20494;-80